sensor_id;sensor_type;location;lat;lon;timestamp;P1;durP1;ratioP1;P2;durP2;ratioP2
67164;SDS011;54093;50.014;19.984;2022-10-16T00:05:15;8.82;;;7.80;;
67164;SDS011;54093;50.014;19.984;2022-10-16T00:14:35;10.98;;;8.43;;
67164;SDS011;54093;50.014;19.984;2022-10-16T00:23:58;8.15;;;7.35;;
67164;SDS011;54093;50.014;19.984;2022-10-16T00:33:20;7.68;;;7.05;;
67164;SDS011;54093;50.014;19.984;2022-10-16T00:42:41;9.45;;;6.72;;
67164;SDS011;54093;50.014;19.984;2022-10-16T00:52:02;11.05;;;6.47;;
67164;SDS011;54093;50.014;19.984;2022-10-16T01:01:23;7.80;;;6.82;;
67164;SDS011;54093;50.014;19.984;2022-10-16T01:10:47;6.70;;;6.18;;
67164;SDS011;54093;50.014;19.984;2022-10-16T01:20:26;6.95;;;6.25;;
67164;SDS011;54093;50.014;19.984;2022-10-16T01:39:46;7.38;;;6.40;;
67164;SDS011;54093;50.014;19.984;2022-10-16T01:49:10;6.72;;;6.22;;
67164;SDS011;54093;50.014;19.984;2022-10-16T01:58:33;8.18;;;6.60;;
67164;SDS011;54093;50.014;19.984;2022-10-16T02:07:57;9.17;;;6.30;;
67164;SDS011;54093;50.014;19.984;2022-10-16T02:17:19;10.52;;;5.90;;
67164;SDS011;54093;50.014;19.984;2022-10-16T02:36:08;10.98;;;8.13;;
67164;SDS011;54093;50.014;19.984;2022-10-16T02:45:29;8.77;;;7.97;;
67164;SDS011;54093;50.014;19.984;2022-10-16T02:54:50;9.10;;;8.15;;
67164;SDS011;54093;50.014;19.984;2022-10-16T03:04:10;8.77;;;8.05;;
67164;SDS011;54093;50.014;19.984;2022-10-16T03:13:31;9.20;;;7.10;;
67164;SDS011;54093;50.014;19.984;2022-10-16T03:22:52;10.38;;;7.93;;
67164;SDS011;54093;50.014;19.984;2022-10-16T03:32:13;6.70;;;6.18;;
67164;SDS011;54093;50.014;19.984;2022-10-16T03:41:33;7.25;;;6.57;;
67164;SDS011;54093;50.014;19.984;2022-10-16T03:50:54;7.45;;;6.70;;
67164;SDS011;54093;50.014;19.984;2022-10-16T04:00:15;7.05;;;6.45;;
67164;SDS011;54093;50.014;19.984;2022-10-16T04:09:36;6.50;;;5.95;;
67164;SDS011;54093;50.014;19.984;2022-10-16T04:18:57;22.27;;;6.85;;
67164;SDS011;54093;50.014;19.984;2022-10-16T04:28:17;7.28;;;6.68;;
67164;SDS011;54093;50.014;19.984;2022-10-16T04:37:38;10.43;;;7.93;;
67164;SDS011;54093;50.014;19.984;2022-10-16T04:46:59;8.70;;;8.05;;
67164;SDS011;54093;50.014;19.984;2022-10-16T04:56:20;7.97;;;7.15;;
67164;SDS011;54093;50.014;19.984;2022-10-16T05:05:42;8.55;;;6.65;;
67164;SDS011;54093;50.014;19.984;2022-10-16T05:15:06;7.10;;;6.25;;
67164;SDS011;54093;50.014;19.984;2022-10-16T05:24:27;6.53;;;5.90;;
67164;SDS011;54093;50.014;19.984;2022-10-16T05:33:48;6.55;;;5.95;;
67164;SDS011;54093;50.014;19.984;2022-10-16T05:43:09;7.78;;;5.65;;
67164;SDS011;54093;50.014;19.984;2022-10-16T05:52:30;6.00;;;5.57;;
67164;SDS011;54093;50.014;19.984;2022-10-16T06:01:51;7.85;;;7.25;;
67164;SDS011;54093;50.014;19.984;2022-10-16T06:11:14;6.65;;;6.00;;
67164;SDS011;54093;50.014;19.984;2022-10-16T06:20:36;6.75;;;5.30;;
67164;SDS011;54093;50.014;19.984;2022-10-16T06:29:58;7.63;;;6.95;;
67164;SDS011;54093;50.014;19.984;2022-10-16T06:39:18;5.60;;;5.20;;
67164;SDS011;54093;50.014;19.984;2022-10-16T06:48:39;6.30;;;5.90;;
67164;SDS011;54093;50.014;19.984;2022-10-16T06:58:00;9.93;;;7.25;;
67164;SDS011;54093;50.014;19.984;2022-10-16T07:07:21;7.10;;;6.40;;
67164;SDS011;54093;50.014;19.984;2022-10-16T07:16:45;13.65;;;8.85;;
67164;SDS011;54093;50.014;19.984;2022-10-16T07:26:07;9.95;;;8.95;;
67164;SDS011;54093;50.014;19.984;2022-10-16T07:35:28;10.70;;;8.45;;
67164;SDS011;54093;50.014;19.984;2022-10-16T07:44:49;9.60;;;8.55;;
67164;SDS011;54093;50.014;19.984;2022-10-16T07:54:09;10.38;;;8.85;;
67164;SDS011;54093;50.014;19.984;2022-10-16T08:03:30;19.38;;;11.55;;
67164;SDS011;54093;50.014;19.984;2022-10-16T08:12:52;10.90;;;9.38;;
67164;SDS011;54093;50.014;19.984;2022-10-16T08:22:13;11.40;;;9.93;;
67164;SDS011;54093;50.014;19.984;2022-10-16T08:31:34;10.40;;;9.40;;
67164;SDS011;54093;50.014;19.984;2022-10-16T08:40:57;11.70;;;9.18;;
67164;SDS011;54093;50.014;19.984;2022-10-16T08:50:36;10.68;;;8.77;;
67164;SDS011;54093;50.014;19.984;2022-10-16T09:00:00;16.77;;;9.10;;
67164;SDS011;54093;50.014;19.984;2022-10-16T09:28:43;6.07;;;5.53;;
67164;SDS011;54093;50.014;19.984;2022-10-16T09:38:05;3.80;;;3.45;;
67164;SDS011;54093;50.014;19.984;2022-10-16T09:47:28;4.00;;;3.70;;
67164;SDS011;54093;50.014;19.984;2022-10-16T09:56:50;3.60;;;3.40;;
67164;SDS011;54093;50.014;19.984;2022-10-16T10:06:16;4.53;;;4.22;;
67164;SDS011;54093;50.014;19.984;2022-10-16T10:15:41;4.45;;;4.10;;
67164;SDS011;54093;50.014;19.984;2022-10-16T10:34:41;3.72;;;3.30;;
67164;SDS011;54093;50.014;19.984;2022-10-16T10:44:15;3.55;;;3.35;;
67164;SDS011;54093;50.014;19.984;2022-10-16T11:12:57;4.30;;;4.00;;
67164;SDS011;54093;50.014;19.984;2022-10-16T11:22:34;4.63;;;3.60;;
67164;SDS011;54093;50.014;19.984;2022-10-16T11:32:12;4.83;;;4.43;;
67164;SDS011;54093;50.014;19.984;2022-10-16T11:41:44;9.10;;;3.65;;
67164;SDS011;54093;50.014;19.984;2022-10-16T11:51:21;3.88;;;3.40;;
67164;SDS011;54093;50.014;19.984;2022-10-16T12:00:53;3.28;;;3.08;;
67164;SDS011;54093;50.014;19.984;2022-10-16T12:10:26;3.72;;;3.53;;
67164;SDS011;54093;50.014;19.984;2022-10-16T12:20:17;5.30;;;3.47;;
67164;SDS011;54093;50.014;19.984;2022-10-16T12:29:41;9.85;;;8.15;;
67164;SDS011;54093;50.014;19.984;2022-10-16T12:39:04;4.00;;;3.70;;
67164;SDS011;54093;50.014;19.984;2022-10-16T12:48:25;2.97;;;2.88;;
67164;SDS011;54093;50.014;19.984;2022-10-16T13:36:18;3.42;;;3.13;;
67164;SDS011;54093;50.014;19.984;2022-10-16T13:45:41;3.70;;;3.35;;
67164;SDS011;54093;50.014;19.984;2022-10-16T13:55:17;2.97;;;2.78;;
67164;SDS011;54093;50.014;19.984;2022-10-16T14:04:38;3.15;;;2.92;;
67164;SDS011;54093;50.014;19.984;2022-10-16T14:13:59;3.05;;;2.72;;
67164;SDS011;54093;50.014;19.984;2022-10-16T14:23:31;2.88;;;2.65;;
67164;SDS011;54093;50.014;19.984;2022-10-16T14:32:56;3.38;;;2.75;;
67164;SDS011;54093;50.014;19.984;2022-10-16T14:42:24;5.07;;;2.72;;
67164;SDS011;54093;50.014;19.984;2022-10-16T14:51:45;3.13;;;2.88;;
67164;SDS011;54093;50.014;19.984;2022-10-16T15:01:08;3.00;;;2.80;;
67164;SDS011;54093;50.014;19.984;2022-10-16T15:10:31;3.80;;;2.95;;
67164;SDS011;54093;50.014;19.984;2022-10-16T15:20:03;4.00;;;2.88;;
67164;SDS011;54093;50.014;19.984;2022-10-16T15:29:24;3.80;;;3.58;;
67164;SDS011;54093;50.014;19.984;2022-10-16T15:38:45;3.58;;;3.30;;
67164;SDS011;54093;50.014;19.984;2022-10-16T15:48:08;5.55;;;4.90;;
67164;SDS011;54093;50.014;19.984;2022-10-16T15:57:31;7.15;;;5.93;;
67164;SDS011;54093;50.014;19.984;2022-10-16T16:06:52;8.23;;;4.95;;
67164;SDS011;54093;50.014;19.984;2022-10-16T16:16:14;4.50;;;4.20;;
67164;SDS011;54093;50.014;19.984;2022-10-16T16:25:35;6.85;;;4.93;;
67164;SDS011;54093;50.014;19.984;2022-10-16T16:34:56;4.70;;;4.40;;
67164;SDS011;54093;50.014;19.984;2022-10-16T16:44:17;6.32;;;4.43;;
67164;SDS011;54093;50.014;19.984;2022-10-16T16:53:38;4.68;;;4.30;;
67164;SDS011;54093;50.014;19.984;2022-10-16T17:03:00;5.13;;;4.72;;
67164;SDS011;54093;50.014;19.984;2022-10-16T17:12:23;6.93;;;4.60;;
67164;SDS011;54093;50.014;19.984;2022-10-16T17:21:44;5.32;;;4.82;;
67164;SDS011;54093;50.014;19.984;2022-10-16T17:31:16;5.20;;;4.80;;
67164;SDS011;54093;50.014;19.984;2022-10-16T17:40:42;8.32;;;5.43;;
67164;SDS011;54093;50.014;19.984;2022-10-16T17:50:03;7.32;;;5.18;;
67164;SDS011;54093;50.014;19.984;2022-10-16T17:59:24;6.30;;;5.80;;
67164;SDS011;54093;50.014;19.984;2022-10-16T18:08:45;5.72;;;5.32;;
67164;SDS011;54093;50.014;19.984;2022-10-16T18:18:06;10.27;;;5.60;;
67164;SDS011;54093;50.014;19.984;2022-10-16T18:27:27;6.28;;;5.72;;
67164;SDS011;54093;50.014;19.984;2022-10-16T18:36:47;7.57;;;4.85;;
67164;SDS011;54093;50.014;19.984;2022-10-16T18:46:10;9.57;;;5.95;;
67164;SDS011;54093;50.014;19.984;2022-10-16T18:55:34;6.10;;;5.50;;
67164;SDS011;54093;50.014;19.984;2022-10-16T19:04:55;5.68;;;5.18;;
67164;SDS011;54093;50.014;19.984;2022-10-16T19:14:15;6.32;;;5.50;;
67164;SDS011;54093;50.014;19.984;2022-10-16T19:23:37;6.95;;;5.45;;
67164;SDS011;54093;50.014;19.984;2022-10-16T19:32:58;6.47;;;5.50;;
67164;SDS011;54093;50.014;19.984;2022-10-16T19:42:18;7.18;;;6.10;;
67164;SDS011;54093;50.014;19.984;2022-10-16T19:51:39;7.68;;;6.88;;
67164;SDS011;54093;50.014;19.984;2022-10-16T20:01:04;6.80;;;6.23;;
67164;SDS011;54093;50.014;19.984;2022-10-16T20:10:25;8.88;;;7.05;;
67164;SDS011;54093;50.014;19.984;2022-10-16T20:19:46;9.63;;;6.05;;
67164;SDS011;54093;50.014;19.984;2022-10-16T20:29:07;5.70;;;5.25;;
67164;SDS011;54093;50.014;19.984;2022-10-16T20:38:28;6.75;;;5.95;;
67164;SDS011;54093;50.014;19.984;2022-10-16T20:47:49;7.05;;;6.35;;
67164;SDS011;54093;50.014;19.984;2022-10-16T20:57:09;7.30;;;5.45;;
67164;SDS011;54093;50.014;19.984;2022-10-16T21:06:30;7.72;;;6.10;;
67164;SDS011;54093;50.014;19.984;2022-10-16T21:15:52;12.05;;;5.40;;
67164;SDS011;54093;50.014;19.984;2022-10-16T21:25:13;8.38;;;6.38;;
67164;SDS011;54093;50.014;19.984;2022-10-16T21:34:34;6.65;;;6.10;;
67164;SDS011;54093;50.014;19.984;2022-10-16T21:43:55;6.28;;;5.78;;
67164;SDS011;54093;50.014;19.984;2022-10-16T21:53:17;7.43;;;6.72;;
67164;SDS011;54093;50.014;19.984;2022-10-16T22:02:38;6.75;;;5.68;;
67164;SDS011;54093;50.014;19.984;2022-10-16T22:11:59;7.97;;;7.30;;
67164;SDS011;54093;50.014;19.984;2022-10-16T22:21:20;6.65;;;6.05;;
67164;SDS011;54093;50.014;19.984;2022-10-16T22:30:41;6.38;;;5.45;;
67164;SDS011;54093;50.014;19.984;2022-10-16T22:40:01;6.80;;;6.20;;
67164;SDS011;54093;50.014;19.984;2022-10-16T22:49:24;6.03;;;5.43;;
67164;SDS011;54093;50.014;19.984;2022-10-16T22:58:45;7.72;;;5.38;;
67164;SDS011;54093;50.014;19.984;2022-10-16T23:08:09;5.95;;;5.45;;
67164;SDS011;54093;50.014;19.984;2022-10-16T23:17:31;11.52;;;5.40;;
67164;SDS011;54093;50.014;19.984;2022-10-16T23:26:51;6.72;;;5.57;;
67164;SDS011;54093;50.014;19.984;2022-10-16T23:36:13;6.55;;;5.53;;
67164;SDS011;54093;50.014;19.984;2022-10-16T23:45:38;6.05;;;5.65;;
67164;SDS011;54093;50.014;19.984;2022-10-16T23:55:01;7.63;;;6.95;;
